createdAt,value
2023-03-12T00:01:31.063Z,96195.52
2023-03-12T00:04:02.462Z,96197.18
2023-03-12T00:06:31.623Z,96194.75
2023-03-12T00:09:02.609Z,96195.13
2023-03-12T00:11:32.130Z,96195.95
2023-03-12T00:14:00.903Z,96196.77
2023-03-12T00:16:30.329Z,96202.65
2023-03-12T00:18:59.880Z,96194.38
2023-03-12T00:21:28.697Z,96184.27
2023-03-12T00:23:58.448Z,96180.71
2023-03-12T00:26:28.128Z,96180.34
2023-03-12T00:28:57.697Z,96183.69
2023-03-12T00:31:29.234Z,96182.23
2023-03-12T00:33:57.860Z,96179.42
2023-03-12T00:36:28.954Z,96176.38
2023-03-12T00:38:59.338Z,96179.41
2023-03-12T00:41:28.853Z,96177.69
2023-03-12T00:43:58.902Z,96185.02
2023-03-12T00:46:29.035Z,96192.17
2023-03-12T00:49:00.334Z,96195.89
2023-03-12T00:51:29.515Z,96198.80
2023-03-12T00:53:59.214Z,96195.67
2023-03-12T00:56:29.139Z,96196.94
2023-03-12T00:58:58.344Z,96199.40
2023-03-12T01:01:28.550Z,96207.98
2023-03-12T01:03:59.563Z,96222.79
2023-03-12T01:06:28.891Z,96230.61
2023-03-12T01:08:57.960Z,96235.58
2023-03-12T01:11:27.911Z,96243.67
2023-03-12T01:13:57.749Z,96243.20
2023-03-12T01:16:28.629Z,96242.90
2023-03-12T01:19:00.260Z,96249.58
2023-03-12T01:21:31.411Z,96251.42
2023-03-12T01:24:00.565Z,96257.04
2023-03-12T01:26:32.287Z,96268.80
2023-03-12T01:29:02.793Z,96265.61
2023-03-12T01:31:32.316Z,96277.69
2023-03-12T01:34:02.701Z,96275.14
2023-03-12T01:36:32.282Z,96278.48
2023-03-12T01:39:04.099Z,96280.23
2023-03-12T01:41:35.276Z,96282.11
2023-03-12T01:44:06.958Z,96283.89
2023-03-12T01:46:39.016Z,96288.89
2023-03-12T01:49:33.031Z,96285.64
2023-03-12T01:52:06.392Z,96284.52
2023-03-12T01:54:54.473Z,96289.89
2023-03-12T01:57:35.080Z,96291.36
2023-03-12T02:00:15.639Z,96292.77
2023-03-12T02:02:45.447Z,96291.84
2023-03-12T02:05:24.566Z,96286.95
2023-03-12T02:07:54.602Z,96289.20
2023-03-12T02:10:25.838Z,96297.97
2023-03-12T02:12:56.202Z,96299.12
2023-03-12T02:15:27.052Z,96297.52
2023-03-12T02:17:57.198Z,96295.63
2023-03-12T02:20:56.222Z,96302.40
2023-03-12T02:23:36.382Z,96311.38
2023-03-12T02:26:07.272Z,96314.14
2023-03-12T02:28:43.733Z,96322.61
2023-03-12T02:31:18.958Z,96330.13
2023-03-12T02:33:49.272Z,96336.73
2023-03-12T02:36:22.276Z,96343.68
2023-03-12T02:38:54.185Z,96346.03
2023-03-12T02:41:30.176Z,96349.77
2023-03-12T02:44:21.233Z,96354.87
2023-03-12T02:46:56.338Z,96356.52
2023-03-12T02:49:28.106Z,96353.51
2023-03-12T02:52:00.582Z,96359.65
2023-03-12T02:54:32.387Z,96361.63
2023-03-12T02:57:03.433Z,96356.65
2023-03-12T02:59:34.734Z,96360.70
2023-03-12T03:02:07.400Z,96365.64
2023-03-12T03:04:36.346Z,96373.79
2023-03-12T03:07:07.775Z,96377.89
2023-03-12T03:09:38.091Z,96383.88
2023-03-12T03:12:08.427Z,96388.84
2023-03-12T03:14:39.277Z,96399.23
2023-03-12T03:17:09.099Z,96397.63
2023-03-12T03:19:39.035Z,96402.34
2023-03-12T03:22:09.754Z,96407.95
2023-03-12T03:24:39.183Z,96411.32
2023-03-12T03:27:10.324Z,96415.69
2023-03-12T03:29:41.636Z,96421.29
2023-03-12T03:32:11.256Z,96427.48
2023-03-12T03:34:42.113Z,96432.27
2023-03-12T03:37:14.697Z,96435.23
2023-03-12T03:39:48.560Z,96432.94
2023-03-12T03:42:23.271Z,96436.41
2023-03-12T03:44:53.725Z,96447.86
2023-03-12T03:47:24.874Z,96453.88
2023-03-12T03:49:55.849Z,96459.09
2023-03-12T03:52:26.651Z,96464.27
2023-03-12T03:54:57.890Z,96468.38
2023-03-12T03:57:28.336Z,96474.95
2023-03-12T04:00:03.885Z,96477.10
2023-03-12T04:02:43.596Z,96484.73
2023-03-12T04:05:13.290Z,96490.85
2023-03-12T04:07:43.210Z,96501.51
2023-03-12T04:10:13.954Z,96503.80
2023-03-12T04:12:43.704Z,96509.05
2023-03-12T04:15:13.070Z,96510.55
2023-03-12T04:17:42.519Z,96511.55
2023-03-12T04:20:13.364Z,96519.27
2023-03-12T04:22:43.522Z,96520.14
2023-03-12T04:25:12.538Z,96523.80
2023-03-12T04:27:41.775Z,96527.02
2023-03-12T04:30:11.739Z,96534.69
2023-03-12T04:32:42.057Z,96535.20
2023-03-12T04:35:11.550Z,96544.42
2023-03-12T04:37:41.482Z,96549.64
2023-03-12T04:40:11.274Z,96556.83
2023-03-12T04:42:40.497Z,96560.48
2023-03-12T04:45:10.731Z,96567.73
2023-03-12T04:47:41.650Z,96578.23
2023-03-12T04:50:12.684Z,96585.34
2023-03-12T04:52:42.189Z,96582.53
2023-03-12T04:55:11.199Z,96583.91
2023-03-12T04:57:40.481Z,96585.13
2023-03-12T05:00:13.461Z,96597.77
2023-03-12T05:02:43.118Z,96603.61
2023-03-12T05:05:12.519Z,96600.84
2023-03-12T05:07:42.149Z,96606.94
2023-03-12T05:10:11.996Z,96615.57
2023-03-12T05:12:41.770Z,96617.23
2023-03-12T05:15:12.067Z,96622.63
2023-03-12T05:17:41.538Z,96621.71
2023-03-12T05:20:11.465Z,96626.06
2023-03-12T05:22:41.182Z,96634.25
2023-03-12T05:25:10.457Z,96637.08
2023-03-12T05:27:39.758Z,96646.46
2023-03-12T05:30:10.082Z,96648.76
2023-03-12T05:32:39.483Z,96654.64
2023-03-12T05:35:08.257Z,96658.80
2023-03-12T05:37:37.982Z,96659.45
2023-03-12T05:40:08.401Z,96662.95
2023-03-12T05:42:38.118Z,96669.03
2023-03-12T05:45:09.723Z,96671.16
2023-03-12T05:47:39.274Z,96678.61
2023-03-12T05:50:10.033Z,96683.35
2023-03-12T05:52:39.009Z,96689.08
2023-03-12T05:55:08.188Z,96686.05
2023-03-12T05:57:36.987Z,96701.67
2023-03-12T06:00:06.473Z,96707.64
2023-03-12T06:02:42.091Z,96708.17
2023-03-12T06:05:12.035Z,96715.02
2023-03-12T06:07:41.246Z,96722.42
2023-03-12T06:10:10.442Z,96724.12
2023-03-12T06:12:39.321Z,96739.47
2023-03-12T06:15:08.731Z,96743.09
2023-03-12T06:17:38.023Z,96748.09
2023-03-12T06:20:07.640Z,96747.24
2023-03-12T06:22:36.834Z,96752.39
2023-03-12T06:25:06.244Z,96756.09
2023-03-12T06:27:35.224Z,96764.41
2023-03-12T06:30:04.425Z,96768.23
2023-03-12T06:32:33.467Z,96770.27
2023-03-12T06:35:02.917Z,96767.94
2023-03-12T06:37:31.719Z,96770.76
2023-03-12T06:40:00.391Z,96756.91
2023-03-12T06:42:29.077Z,96766.25
2023-03-12T06:44:58.077Z,96770.62
2023-03-12T06:47:26.765Z,96778.10
2023-03-12T06:49:55.338Z,96778.09
2023-03-12T06:52:23.821Z,96781.98
2023-03-12T06:54:52.924Z,96785.30
2023-03-12T06:57:21.803Z,96790.11
2023-03-12T06:59:50.772Z,96794.69
2023-03-12T07:02:19.414Z,96800.25
2023-03-12T07:04:48.024Z,96809.98
2023-03-12T07:07:17.368Z,96818.30
2023-03-12T07:09:45.954Z,96826.37
2023-03-12T07:12:14.431Z,96831.11
2023-03-12T07:14:43.329Z,96834.42
2023-03-12T07:17:12.483Z,96829.65
2023-03-12T07:19:41.417Z,96839.06
2023-03-12T07:22:10.102Z,96846.91
2023-03-12T07:24:38.686Z,96852.61
2023-03-12T07:27:07.165Z,96855.67
2023-03-12T07:29:36.158Z,96857.11
2023-03-12T07:32:05.459Z,96857.36
2023-03-12T07:34:34.052Z,96863.46
2023-03-12T07:37:02.722Z,96866.02
2023-03-12T07:39:31.755Z,96874.24
2023-03-12T07:42:00.347Z,96871.19
2023-03-12T07:44:30.009Z,96874.11
2023-03-12T07:47:02.962Z,96877.23
2023-03-12T07:49:39.822Z,96891.12
2023-03-12T07:52:11.706Z,96888.04
2023-03-12T07:54:40.459Z,96892.87
2023-03-12T07:57:09.190Z,96901.95
2023-03-12T07:59:38.098Z,96905.88
2023-03-12T08:02:07.302Z,96912.94
2023-03-12T08:04:35.998Z,96907.52
2023-03-12T08:07:05.782Z,96912.66
2023-03-12T08:09:35.804Z,96915.72
2023-03-12T08:12:04.827Z,96922.63
2023-03-12T08:14:33.805Z,96925.87
2023-03-12T08:17:02.488Z,96936.29
2023-03-12T08:19:31.368Z,96949.10
2023-03-12T08:22:00.049Z,96954.58
2023-03-12T08:24:28.532Z,96953.17
2023-03-12T08:26:57.111Z,96960.61
2023-03-12T08:29:25.905Z,96966.98
2023-03-12T08:32:04.411Z,96968.77
2023-03-12T08:34:35.071Z,96975.16
2023-03-12T08:37:03.939Z,96974.45
2023-03-12T08:39:32.634Z,96968.52
2023-03-12T08:42:01.207Z,96965.29
2023-03-12T08:44:29.999Z,96968.59
2023-03-12T08:46:58.278Z,96965.63
2023-03-12T08:49:26.651Z,96980.38
2023-03-12T08:51:55.133Z,96984.05
2023-03-12T08:54:24.021Z,96984.04
2023-03-12T08:56:53.186Z,96981.88
2023-03-12T08:59:22.545Z,96983.83
2023-03-12T09:01:51.321Z,96987.14
2023-03-12T09:04:20.351Z,96985.95
2023-03-12T09:06:48.888Z,96994.97
2023-03-12T09:09:17.470Z,96999.70
2023-03-12T09:11:45.850Z,97004.69
2023-03-12T09:17:03.140Z,97007.30
2023-03-12T09:19:31.770Z,97002.58
2023-03-12T09:22:00.265Z,97007.81
2023-03-12T09:36:26.019Z,97023.17
2023-03-12T09:38:55.535Z,97030.20
2023-03-12T09:41:27.756Z,97032.41
2023-03-12T09:44:21.265Z,97037.58
2023-03-12T09:46:56.974Z,97039.41
2023-03-12T09:49:34.708Z,97049.54
2023-03-12T09:52:18.655Z,97048.83
2023-03-12T09:55:11.208Z,97055.13
2023-03-12T09:57:40.090Z,97058.19
2023-03-12T10:00:17.579Z,97060.28
2023-03-12T10:03:24.285Z,97058.40
2023-03-12T10:06:26.858Z,97060.02
2023-03-12T10:09:25.421Z,97054.99
2023-03-12T10:12:06.712Z,97061.75
2023-03-12T10:14:50.131Z,97052.58
2023-03-12T10:17:37.116Z,97057.59
2023-03-12T10:20:22.843Z,97063.46
2023-03-12T10:23:04.122Z,97059.81
2023-03-12T10:25:45.494Z,97061.22
2023-03-12T10:28:38.050Z,97060.86
2023-03-12T10:31:20.413Z,97056.55
2023-03-12T10:33:54.570Z,97055.92
2023-03-12T10:36:30.111Z,97060.58
2023-03-12T10:38:58.907Z,97060.59
2023-03-12T10:41:34.781Z,97060.84
2023-03-12T10:44:08.672Z,97062.91
2023-03-12T10:59:30.973Z,97058.99
2023-03-12T11:02:01.029Z,97062.41
2023-03-12T11:04:32.856Z,97059.36
2023-03-12T11:07:15.658Z,97060.14
2023-03-12T11:09:44.829Z,97068.69
2023-03-12T11:12:28.596Z,97067.52
2023-03-12T11:14:58.310Z,97069.06
2023-03-12T11:17:28.946Z,97067.70
2023-03-12T11:19:57.929Z,97062.77
2023-03-12T11:22:35.269Z,97064.65
2023-03-12T11:25:07.815Z,97064.73
2023-03-12T11:27:49.827Z,97066.30
2023-03-12T11:30:25.078Z,97070.34
2023-03-12T11:32:54.140Z,97063.20
2023-03-12T11:35:39.615Z,97065.52
2023-03-12T11:38:18.975Z,97066.72
2023-03-12T11:41:09.231Z,97065.25
2023-03-12T11:44:16.320Z,97060.34
2023-03-12T11:47:00.080Z,97062.06
2023-03-12T11:49:41.236Z,97065.45
2023-03-12T11:52:27.532Z,97068.95
2023-03-12T11:55:24.887Z,97063.11
2023-03-12T11:58:09.243Z,97070.73
2023-03-12T12:01:09.057Z,97072.78
2023-03-12T12:03:53.002Z,97075.64
2023-03-12T12:06:39.419Z,97070.11
2023-03-12T12:09:20.696Z,97070.37
2023-03-12T12:12:13.439Z,97070.61
2023-03-12T12:14:45.194Z,97075.16
2023-03-12T12:17:22.171Z,97071.23
2023-03-12T12:20:42.161Z,97068.45
2023-03-12T12:23:11.047Z,97072.92
2023-03-12T12:26:07.500Z,97077.34
2023-03-12T12:28:57.175Z,97074.98
2023-03-12T12:31:40.860Z,97076.92
2023-03-12T12:34:21.671Z,97071.63
2023-03-12T12:36:57.731Z,97077.98
2023-03-12T12:39:35.597Z,97075.95
2023-03-12T12:42:08.255Z,97076.81
2023-03-12T12:44:49.110Z,97080.07
2023-03-12T12:47:28.925Z,97076.79
2023-03-12T12:49:58.634Z,97080.34
2023-03-12T12:52:27.834Z,97080.76
2023-03-12T12:55:05.733Z,97075.36
2023-03-12T12:57:34.775Z,97077.55
2023-03-12T13:00:15.702Z,97080.11
2023-03-12T13:02:48.232Z,97074.47
2023-03-12T13:05:25.980Z,97084.34
2023-03-12T13:07:55.178Z,97086.13
2023-03-12T13:10:33.002Z,97090.34
2023-03-12T13:13:07.910Z,97091.88
2023-03-12T13:15:43.789Z,97089.21
2023-03-12T13:18:24.622Z,97091.48
2023-03-12T13:20:53.120Z,97087.23
2023-03-12T13:23:31.438Z,97089.17
2023-03-12T13:26:35.770Z,97088.83
2023-03-12T13:29:37.526Z,97088.06
2023-03-12T13:32:10.617Z,97094.73
2023-03-12T13:34:47.490Z,97092.16
2023-03-12T13:37:29.067Z,97091.53
2023-03-12T13:40:03.393Z,97093.08
2023-03-12T13:42:42.131Z,97096.44
2023-03-12T13:45:31.930Z,97095.72
2023-03-12T13:48:04.988Z,97097.50
2023-03-12T13:50:52.296Z,97100.71
2023-03-12T13:53:28.358Z,97104.39
2023-03-12T13:56:28.064Z,97103.90
2023-03-12T13:59:07.310Z,97100.43
2023-03-12T14:01:47.173Z,97100.17
2023-03-12T14:04:22.897Z,97103.41
2023-03-12T14:07:03.667Z,97104.01
2023-03-12T14:09:53.246Z,97110.58
2023-03-12T14:13:04.627Z,97112.43
2023-03-12T14:15:42.776Z,97112.50
2023-03-12T14:18:28.718Z,97116.00
2023-03-12T14:21:00.841Z,97115.20
2023-03-12T14:23:37.557Z,97116.95
2023-03-12T14:26:07.690Z,97115.56
2023-03-12T14:28:41.992Z,97119.43
2023-03-12T14:31:17.531Z,97122.98
2023-03-12T14:33:59.022Z,97126.23
2023-03-12T14:36:36.624Z,97129.90
2023-03-12T14:39:25.997Z,97126.05
2023-03-12T14:42:00.831Z,97129.30
2023-03-12T14:44:31.053Z,97133.27
2023-03-12T14:47:10.497Z,97134.96
2023-03-12T14:49:44.910Z,97135.31
2023-03-12T14:52:21.885Z,97133.37
2023-03-12T14:54:59.888Z,97140.88
2023-03-12T14:57:29.288Z,97146.51
2023-03-12T15:00:00.393Z,97144.02
2023-03-12T15:02:31.570Z,97150.33
2023-03-12T15:05:02.590Z,97154.91
2023-03-12T15:07:35.724Z,97153.79
2023-03-12T15:10:08.297Z,97155.64
2023-03-12T15:12:38.620Z,97157.52
2023-03-12T15:15:11.388Z,97155.88
2023-03-12T15:17:40.384Z,97158.30
2023-03-12T15:20:15.936Z,97158.10
2023-03-12T15:22:45.129Z,97161.07
2023-03-12T15:25:25.276Z,97159.55
2023-03-12T15:28:15.365Z,97163.92
2023-03-12T15:30:44.623Z,97163.20
2023-03-12T15:33:16.229Z,97166.92
2023-03-12T15:36:18.754Z,97166.43
2023-03-12T15:38:51.066Z,97174.13
2023-03-12T15:41:49.208Z,97177.11
2023-03-12T15:44:26.846Z,97173.80
2023-03-12T15:47:04.373Z,97178.01
2023-03-12T15:49:36.758Z,97183.48
2023-03-12T15:52:20.541Z,97186.67
2023-03-12T15:55:07.623Z,97190.69
2023-03-12T15:57:48.223Z,97198.55
2023-03-12T16:00:20.497Z,97201.56
2023-03-12T16:02:55.941Z,97206.90
2023-03-12T16:05:36.590Z,97211.08
2023-03-12T16:08:31.903Z,97213.20
2023-03-12T16:11:01.633Z,97214.83
2023-03-12T16:13:32.317Z,97216.05
2023-03-12T16:16:01.311Z,97220.55
2023-03-12T16:18:30.035Z,97223.48
2023-03-12T16:20:58.724Z,97229.77
2023-03-12T16:23:27.406Z,97236.16
2023-03-12T16:25:56.792Z,97238.17
2023-03-12T16:28:26.113Z,97241.13
2023-03-12T16:30:55.003Z,97245.31
2023-03-12T16:33:25.019Z,97246.54
2023-03-12T16:35:53.664Z,97254.66
2023-03-12T16:38:22.489Z,97259.48
2023-03-12T16:40:54.094Z,97266.23
2023-03-12T16:43:24.923Z,97268.11
2023-03-12T16:45:54.463Z,97269.36
2023-03-12T16:48:26.990Z,97272.45
2023-03-12T16:50:58.924Z,97275.48
2023-03-12T16:53:28.627Z,97281.65
2023-03-12T16:56:00.076Z,97288.77
2023-03-12T16:58:30.222Z,97293.36
2023-03-12T17:00:59.122Z,97294.46
2023-03-12T17:03:35.486Z,97299.34
2023-03-12T17:06:06.731Z,97304.80
2023-03-12T17:08:36.407Z,97310.30
2023-03-12T17:11:15.600Z,97310.70
2023-03-12T17:13:46.258Z,97309.63
2023-03-12T17:16:14.992Z,97313.13
2023-03-12T17:18:44.160Z,97318.77
2023-03-12T17:21:15.407Z,97319.02
2023-03-12T17:23:47.168Z,97326.08
2023-03-12T17:26:15.741Z,97327.71
2023-03-12T17:28:44.853Z,97330.74
2023-03-12T17:31:13.545Z,97331.33
2023-03-12T17:33:43.538Z,97339.24
2023-03-12T17:36:12.122Z,97340.79
2023-03-12T17:38:40.816Z,97342.14
2023-03-12T17:41:25.128Z,97344.93
2023-03-12T17:43:58.879Z,97353.90
2023-03-12T17:46:29.167Z,97360.27
2023-03-12T17:48:57.874Z,97367.68
2023-03-12T17:51:26.568Z,97369.54
2023-03-12T17:53:55.147Z,97374.89
2023-03-12T17:56:23.732Z,97379.36
2023-03-12T17:58:52.320Z,97386.35
2023-03-12T18:01:20.996Z,97392.40
2023-03-12T18:03:51.572Z,97390.98
2023-03-12T18:06:20.105Z,97390.27
2023-03-12T18:08:48.686Z,97392.15
2023-03-12T18:11:17.383Z,97395.54
2023-03-12T18:13:48.618Z,97397.36
2023-03-12T18:16:17.844Z,97396.05
2023-03-12T18:18:46.508Z,97399.36
2023-03-12T18:21:15.095Z,97405.25
2023-03-12T18:23:44.199Z,97409.45
2023-03-12T18:26:12.865Z,97414.35
2023-03-12T18:28:41.347Z,97419.02
2023-03-12T18:31:10.592Z,97422.62
2023-03-12T18:33:39.241Z,97422.21
2023-03-12T18:36:08.732Z,97425.79
2023-03-12T18:38:39.476Z,97424.44
2023-03-12T18:41:10.826Z,97427.50
2023-03-12T18:43:40.364Z,97430.17
2023-03-12T18:46:09.462Z,97436.11
2023-03-12T18:48:38.006Z,97441.35
2023-03-12T18:51:06.687Z,97447.46
2023-03-12T18:53:35.285Z,97450.99
2023-03-12T18:56:04.266Z,97455.55
2023-03-12T18:58:32.952Z,97459.80
2023-03-12T19:01:02.150Z,97459.56
2023-03-12T19:03:36.668Z,97469.21
2023-03-12T19:06:17.090Z,97475.39
2023-03-12T19:08:45.511Z,97478.85
2023-03-12T19:11:15.645Z,97479.21
2023-03-12T19:13:45.643Z,97483.52
2023-03-12T19:16:18.047Z,97485.30
2023-03-12T19:18:46.700Z,97492.20
2023-03-12T19:21:15.695Z,97499.48
2023-03-12T19:23:45.098Z,97501.92
2023-03-12T19:26:14.908Z,97503.02
2023-03-12T19:28:43.593Z,97508.30
2023-03-12T19:31:15.452Z,97509.79
2023-03-12T19:33:45.483Z,97510.39
2023-03-12T19:36:14.065Z,97517.30
2023-03-12T19:38:42.841Z,97520.67
2023-03-12T19:41:12.966Z,97523.71
2023-03-12T19:43:41.962Z,97524.38
2023-03-12T19:46:10.721Z,97528.77
2023-03-12T19:48:39.530Z,97532.64
2023-03-12T19:51:10.593Z,97540.22
2023-03-12T19:53:39.358Z,97543.04
2023-03-12T19:56:08.461Z,97543.31
2023-03-12T19:58:37.042Z,97543.75
2023-03-12T20:01:05.826Z,97545.02
2023-03-12T20:03:34.900Z,97549.36
2023-03-12T20:06:04.470Z,97548.98
2023-03-12T20:08:33.108Z,97548.11
2023-03-12T20:11:07.324Z,97548.91
2023-03-12T20:13:38.978Z,97557.05
2023-03-12T20:16:08.569Z,97559.15
2023-03-12T20:18:39.725Z,97559.05
2023-03-12T20:21:08.863Z,97560.30
2023-03-12T20:23:37.516Z,97563.95
2023-03-12T20:26:06.301Z,97564.54
2023-03-12T20:28:35.293Z,97566.14
2023-03-12T20:31:14.421Z,97566.90
2023-03-12T20:33:43.432Z,97567.84
2023-03-12T20:36:14.272Z,97567.70
2023-03-12T20:38:43.546Z,97567.24
2023-03-12T20:41:16.018Z,97565.90
2023-03-12T20:43:45.638Z,97561.52
2023-03-12T20:46:14.664Z,97568.39
2023-03-12T20:48:43.825Z,97569.97
2023-03-12T20:51:12.717Z,97571.05
2023-03-12T20:53:41.508Z,97570.63
2023-03-12T20:56:11.349Z,97567.10
2023-03-12T20:58:40.200Z,97570.75
2023-03-12T21:01:09.347Z,97572.33
2023-03-12T21:03:37.884Z,97579.87
2023-03-12T21:06:07.286Z,97579.59
2023-03-12T21:08:35.874Z,97583.39
2023-03-12T21:11:08.986Z,97583.43
2023-03-12T21:13:37.569Z,97585.20
2023-03-12T21:16:08.129Z,97584.26
2023-03-12T21:18:36.966Z,97586.33
2023-03-12T21:21:08.247Z,97584.84
2023-03-12T21:23:38.180Z,97581.52
2023-03-12T21:26:09.372Z,97580.73
2023-03-12T21:28:38.585Z,97577.39
2023-03-12T21:31:12.902Z,97572.65
2023-03-12T21:33:42.504Z,97579.48
2023-03-12T21:36:13.799Z,97581.36
2023-03-12T21:38:43.412Z,97579.68
2023-03-12T21:41:15.726Z,97576.96
2023-03-12T21:43:45.630Z,97581.26
2023-03-12T21:46:19.057Z,97582.13
2023-03-12T21:48:48.687Z,97581.98
2023-03-12T21:51:18.984Z,97585.61
2023-03-12T21:53:47.642Z,97590.96
2023-03-12T21:56:16.761Z,97595.20
2023-03-12T21:58:45.526Z,97598.46
2023-03-12T22:01:17.570Z,97593.39
2023-03-12T22:03:47.687Z,97593.81
2023-03-12T22:06:17.017Z,97596.73
2023-03-12T22:08:48.390Z,97597.77
2023-03-12T22:11:17.450Z,97599.42
2023-03-12T22:13:46.569Z,97597.16
2023-03-12T22:16:16.617Z,97602.77
2023-03-12T22:18:46.789Z,97603.28
2023-03-12T22:21:19.773Z,97600.95
2023-03-12T22:23:53.783Z,97602.55
2023-03-12T22:26:25.276Z,97606.52
2023-03-12T22:28:57.329Z,97606.90
2023-03-12T22:31:28.284Z,97606.92
2023-03-12T22:33:58.047Z,97610.05
2023-03-12T22:36:27.662Z,97606.72
2023-03-12T22:38:56.849Z,97607.66
2023-03-12T22:41:30.044Z,97608.89
2023-03-12T22:44:05.620Z,97613.67
2023-03-12T22:46:34.928Z,97620.79
2023-03-12T22:49:05.387Z,97617.71
2023-03-12T22:51:34.840Z,97617.41
2023-03-12T22:54:05.210Z,97620.51
2023-03-12T22:56:34.627Z,97627.14
2023-03-12T22:59:04.251Z,97629.33
2023-03-12T23:01:33.581Z,97629.98
2023-03-12T23:04:04.514Z,97630.59
2023-03-12T23:06:33.500Z,97639.58
2023-03-12T23:09:02.699Z,97643.69
2023-03-12T23:11:31.793Z,97644.91
2023-03-12T23:14:00.977Z,97640.71
2023-03-12T23:16:30.225Z,97642.07
2023-03-12T23:19:00.620Z,97644.16
2023-03-12T23:21:30.220Z,97646.06
2023-03-12T23:23:59.505Z,97644.73
2023-03-12T23:26:29.936Z,97642.90
2023-03-12T23:28:59.971Z,97639.38
2023-03-12T23:31:30.580Z,97639.41
2023-03-12T23:34:00.371Z,97637.39
2023-03-12T23:36:30.985Z,97637.77
2023-03-12T23:39:00.559Z,97639.33
2023-03-12T23:41:31.120Z,97647.04
2023-03-12T23:44:01.976Z,97645.39
2023-03-12T23:46:31.952Z,97646.95
2023-03-12T23:49:01.563Z,97641.54
2023-03-12T23:51:33.634Z,97636.44
2023-03-12T23:54:05.963Z,97633.39
2023-03-12T23:56:37.779Z,97641.06
2023-03-12T23:59:09.787Z,97643.31
